createdAt,value
2018-01-20T00:02:11.733Z,4.20
2018-01-20T00:04:39.891Z,4.10
2018-01-20T00:07:08.050Z,4.20
2018-01-20T00:09:48.851Z,4.10
2018-01-20T00:12:18.248Z,4.00
2018-01-20T00:14:46.387Z,4.00
2018-01-20T00:17:16.288Z,4.10
2018-01-20T00:19:44.413Z,4.10
2018-01-20T00:22:21.268Z,4.00
2018-01-20T00:24:54.989Z,4.00
2018-01-20T00:27:23.142Z,4.00
2018-01-20T00:29:52.053Z,3.90
2018-01-20T00:32:20.972Z,3.90
2018-01-20T00:34:49.881Z,3.90
2018-01-20T00:37:18.045Z,3.90
2018-01-20T00:39:46.930Z,3.90
2018-01-20T00:42:15.072Z,3.90
2018-01-20T00:44:43.234Z,4.00
2018-01-20T00:47:12.174Z,4.00
2018-01-20T00:49:41.045Z,3.90
2018-01-20T00:52:09.176Z,3.90
2018-01-20T00:54:38.101Z,3.90
2018-01-20T00:57:06.245Z,3.90
2018-01-20T00:59:34.425Z,4.00
2018-01-20T01:02:02.568Z,4.00
2018-01-20T01:04:31.512Z,4.00
2018-01-20T01:07:00.420Z,4.00
2018-01-20T01:09:28.560Z,4.00
2018-01-20T01:11:56.710Z,4.00
2018-01-20T01:14:24.840Z,4.00
2018-01-20T01:16:53.747Z,3.90
2018-01-20T01:19:22.675Z,4.00
2018-01-20T01:21:50.813Z,4.00
2018-01-20T01:24:18.971Z,4.10
2018-01-20T01:26:47.817Z,4.10
2018-01-20T01:29:16.763Z,4.10
2018-01-20T01:31:44.918Z,4.10
2018-01-20T01:34:13.845Z,4.20
2018-01-20T01:36:42.005Z,4.20
2018-01-20T01:39:10.132Z,4.20
2018-01-20T01:41:38.263Z,4.10
2018-01-20T01:44:06.409Z,4.00
2018-01-20T01:46:34.540Z,4.00
2018-01-20T01:49:02.687Z,4.00
2018-01-20T01:51:30.825Z,3.90
2018-01-20T01:53:59.741Z,3.70
2018-01-20T01:56:27.913Z,3.70
2018-01-20T01:58:56.820Z,3.60
2018-01-20T02:01:25.730Z,3.50
2018-01-20T02:03:53.896Z,3.50
2018-01-20T02:06:22.794Z,3.40
2018-01-20T02:08:50.941Z,3.40
2018-01-20T02:11:19.076Z,3.40
2018-01-20T02:13:47.994Z,3.30
2018-01-20T02:16:16.755Z,3.30
2018-01-20T02:18:44.906Z,3.30
2018-01-20T02:21:13.799Z,3.40
2018-01-20T02:23:41.952Z,3.40
2018-01-20T02:26:10.841Z,3.30
2018-01-20T02:28:39.028Z,3.20
2018-01-20T02:31:07.157Z,3.20
2018-01-20T02:33:35.296Z,3.20
2018-01-20T02:36:03.462Z,3.20
2018-01-20T02:38:31.567Z,3.20
2018-01-20T02:40:59.710Z,3.10
2018-01-20T02:43:27.854Z,3.10
2018-01-20T02:45:55.989Z,3.00
2018-01-20T02:48:24.118Z,2.90
2018-01-20T02:50:52.276Z,3.00
2018-01-20T02:53:20.376Z,2.70
2018-01-20T02:55:48.524Z,2.60
2018-01-20T02:58:16.652Z,2.70
2018-01-20T03:00:44.821Z,2.80
2018-01-20T03:03:14.395Z,2.90
2018-01-20T03:05:42.556Z,2.80
2018-01-20T03:08:10.700Z,2.90
2018-01-20T03:10:38.816Z,2.90
2018-01-20T03:13:06.976Z,2.80
2018-01-20T03:15:35.088Z,2.90
2018-01-20T03:18:03.225Z,2.80
2018-01-20T03:20:31.349Z,2.70
2018-01-20T03:22:59.491Z,2.70
2018-01-20T03:25:27.624Z,2.70
2018-01-20T03:27:55.772Z,2.80
2018-01-20T03:30:23.907Z,2.80
2018-01-20T03:32:52.036Z,2.80
2018-01-20T03:35:20.173Z,2.90
2018-01-20T03:37:48.306Z,2.90
2018-01-20T03:40:16.456Z,3.00
2018-01-20T03:42:45.362Z,3.00
2018-01-20T03:45:13.493Z,3.00
2018-01-20T03:47:41.639Z,3.00
2018-01-20T03:50:10.563Z,3.00
2018-01-20T03:52:40.187Z,3.00
2018-01-20T03:55:08.320Z,3.00
2018-01-20T03:57:36.442Z,3.10
2018-01-20T04:00:05.360Z,3.10
2018-01-20T04:02:34.237Z,3.20
2018-01-20T04:05:02.403Z,3.20
2018-01-20T04:07:30.528Z,3.20
2018-01-20T04:10:00.404Z,3.20
2018-01-20T04:12:28.528Z,3.20
2018-01-20T04:14:57.465Z,3.20
2018-01-20T04:17:25.672Z,3.20
2018-01-20T04:19:53.798Z,3.30
2018-01-20T04:22:22.827Z,3.30
2018-01-20T04:24:51.712Z,3.30
2018-01-20T04:27:20.633Z,3.30
2018-01-20T04:29:49.540Z,3.30
2018-01-20T04:32:17.704Z,3.30
2018-01-20T04:34:46.614Z,3.20
2018-01-20T04:37:15.503Z,3.20
2018-01-20T04:39:43.649Z,3.20
2018-01-20T04:42:11.789Z,3.20
2018-01-20T04:44:40.697Z,3.20
2018-01-20T04:47:09.587Z,3.10
2018-01-20T04:49:37.729Z,3.10
2018-01-20T04:52:05.869Z,3.20
2018-01-20T04:54:34.028Z,3.10
2018-01-20T04:57:02.169Z,3.00
2018-01-20T04:59:30.290Z,2.90
2018-01-20T05:01:58.442Z,3.10
2018-01-20T05:04:26.582Z,3.10
2018-01-20T05:06:54.731Z,3.00
2018-01-20T05:09:22.870Z,2.90
2018-01-20T05:11:51.781Z,3.00
2018-01-20T05:14:20.674Z,3.10
2018-01-20T05:16:49.598Z,2.90
2018-01-20T05:19:17.725Z,2.90
2018-01-20T05:21:45.878Z,2.70
2018-01-20T05:24:14.020Z,2.90
2018-01-20T05:26:42.191Z,3.00
2018-01-20T05:29:10.475Z,3.00
2018-01-20T05:31:38.604Z,3.10
2018-01-20T05:34:07.501Z,3.30
2018-01-20T05:36:36.416Z,3.30
2018-01-20T05:39:05.317Z,3.30
2018-01-20T05:41:34.224Z,3.40
2018-01-20T05:44:02.360Z,3.30
2018-01-20T05:46:30.495Z,3.30
2018-01-20T05:48:58.654Z,3.40
2018-01-20T05:51:26.772Z,3.40
2018-01-20T05:53:54.929Z,3.50
2018-01-20T05:56:23.064Z,3.50
2018-01-20T05:58:51.209Z,3.50
2018-01-20T06:01:20.096Z,3.30
2018-01-20T06:03:48.247Z,3.30
2018-01-20T06:06:16.508Z,3.30
2018-01-20T06:08:45.392Z,3.40
2018-01-20T06:11:14.320Z,3.40
2018-01-20T06:13:42.473Z,3.40
2018-01-20T06:16:12.103Z,3.60
2018-01-20T06:18:41.018Z,3.60
2018-01-20T06:21:09.932Z,3.60
2018-01-20T06:23:38.808Z,3.70
2018-01-20T06:26:07.712Z,3.60
2018-01-20T06:28:36.607Z,3.70
2018-01-20T06:31:04.762Z,3.60
2018-01-20T06:33:32.925Z,3.70
2018-01-20T06:36:01.057Z,3.70
2018-01-20T06:38:29.195Z,3.80
2018-01-20T06:40:57.328Z,3.80
2018-01-20T06:43:25.485Z,3.80
2018-01-20T06:45:53.625Z,3.70
2018-01-20T06:48:22.529Z,3.80
2018-01-20T06:50:51.420Z,3.70
2018-01-20T06:53:19.560Z,3.70
2018-01-20T06:55:47.688Z,3.70
2018-01-20T06:58:15.842Z,3.70
2018-01-20T07:00:43.992Z,3.60
2018-01-20T07:03:12.125Z,3.70
2018-01-20T07:05:40.269Z,3.60
2018-01-20T07:08:08.398Z,3.60
2018-01-20T07:10:37.316Z,3.70
2018-01-20T07:13:05.464Z,3.70
2018-01-20T07:15:33.635Z,3.70
2018-01-20T07:18:01.776Z,3.80
2018-01-20T07:20:29.912Z,3.80
2018-01-20T07:22:58.086Z,3.90
2018-01-20T07:25:26.217Z,3.90
2018-01-20T07:27:54.392Z,3.80
2018-01-20T07:30:22.519Z,3.90
2018-01-20T07:32:51.435Z,3.90
2018-01-20T07:35:20.338Z,3.90
2018-01-20T07:37:49.256Z,3.80
2018-01-20T07:40:17.398Z,3.80
2018-01-20T07:42:45.550Z,3.80
2018-01-20T07:45:13.697Z,3.90
2018-01-20T07:47:42.617Z,4.00
2018-01-20T07:50:10.761Z,4.00
2018-01-20T07:52:38.908Z,4.00
2018-01-20T07:55:07.074Z,4.10
2018-01-20T07:57:35.214Z,4.10
2018-01-20T08:00:03.368Z,4.10
2018-01-20T08:02:31.537Z,4.20
2018-01-20T08:05:00.429Z,4.20
2018-01-20T08:07:29.328Z,4.30
2018-01-20T08:09:58.229Z,4.20
2018-01-20T08:12:27.113Z,4.30
2018-01-20T08:14:55.269Z,4.30
2018-01-20T08:17:23.421Z,4.30
2018-01-20T08:19:52.305Z,4.40
2018-01-20T08:22:21.243Z,4.30
2018-01-20T08:24:49.397Z,4.30
2018-01-20T08:27:18.316Z,4.40
2018-01-20T08:29:46.449Z,4.30
2018-01-20T08:32:14.612Z,4.40
2018-01-20T08:34:42.760Z,4.60
2018-01-20T08:37:11.672Z,4.60
2018-01-20T08:39:40.579Z,4.70
2018-01-20T08:42:08.729Z,4.60
2018-01-20T08:44:36.852Z,4.60
2018-01-20T08:47:05.004Z,4.50
2018-01-20T08:49:33.161Z,4.50
2018-01-20T08:52:01.319Z,4.40
2018-01-20T08:54:29.460Z,4.60
2018-01-20T08:56:57.577Z,4.50
2018-01-20T08:59:25.745Z,4.60
2018-01-20T09:01:54.656Z,4.50
2018-01-20T09:04:23.601Z,4.50
2018-01-20T09:06:52.524Z,4.60
2018-01-20T09:09:20.684Z,4.60
2018-01-20T09:11:48.824Z,4.70
2018-01-20T09:14:16.980Z,4.80
2018-01-20T09:16:45.114Z,4.80
2018-01-20T09:19:13.263Z,4.80
2018-01-20T09:21:42.162Z,4.80
2018-01-20T09:24:10.321Z,4.80
2018-01-20T09:26:38.450Z,4.80
2018-01-20T09:29:06.604Z,4.80
2018-01-20T09:31:34.720Z,4.70
2018-01-20T09:34:02.933Z,4.50
2018-01-20T09:36:31.828Z,4.40
2018-01-20T09:39:00.755Z,4.40
2018-01-20T09:41:28.888Z,4.30
2018-01-20T09:43:57.019Z,4.30
2018-01-20T09:46:25.181Z,4.30
2018-01-20T09:48:53.302Z,4.40
2018-01-20T09:51:21.448Z,4.30
2018-01-20T09:53:49.629Z,4.40
2018-01-20T09:56:18.551Z,4.40
2018-01-20T09:58:46.685Z,4.30
2018-01-20T10:01:15.592Z,4.30
2018-01-20T10:03:43.722Z,4.30
2018-01-20T10:06:11.874Z,4.40
2018-01-20T10:08:40.785Z,4.50
2018-01-20T10:11:12.037Z,4.50
2018-01-20T10:13:40.944Z,4.50
2018-01-20T10:16:09.084Z,4.50
2018-01-20T10:18:37.986Z,4.50
2018-01-20T10:21:06.115Z,4.50
2018-01-20T10:23:34.718Z,4.60
2018-01-20T10:26:02.885Z,4.60
2018-01-20T10:28:31.037Z,4.50
2018-01-20T10:30:59.192Z,4.70
2018-01-20T10:33:28.088Z,4.90
2018-01-20T10:35:56.212Z,4.80
2018-01-20T10:38:24.357Z,4.90
2018-01-20T10:40:54.000Z,5.00
2018-01-20T10:43:22.172Z,5.00
2018-01-20T10:45:50.327Z,5.00
2018-01-20T10:48:18.541Z,4.90
2018-01-20T10:50:46.694Z,4.90
2018-01-20T10:53:15.577Z,5.00
2018-01-20T10:55:44.151Z,5.00
2018-01-20T10:58:12.306Z,5.00
2018-01-20T11:00:40.466Z,5.00
2018-01-20T11:03:08.634Z,5.00
2018-01-20T11:05:36.769Z,5.00
2018-01-20T11:08:04.928Z,5.10
2018-01-20T11:13:07.568Z,5.10
2018-01-20T11:15:36.506Z,5.00
2018-01-20T11:18:04.634Z,5.00
2018-01-20T11:20:32.794Z,5.20
2018-01-20T11:23:01.696Z,5.20
2018-01-20T11:25:31.597Z,5.20
2018-01-20T11:27:59.738Z,5.20
2018-01-20T11:30:27.905Z,5.10
2018-01-20T11:32:56.833Z,5.20
2018-01-20T11:35:24.964Z,5.20
2018-01-20T11:37:53.144Z,5.30
2018-01-20T11:40:21.288Z,5.20
2018-01-20T11:42:49.415Z,5.30
2018-01-20T11:45:17.563Z,5.20
2018-01-20T11:47:45.707Z,5.30
2018-01-20T11:50:15.470Z,5.30
2018-01-20T11:52:44.184Z,5.20
2018-01-20T11:55:12.322Z,5.20
2018-01-20T11:57:40.511Z,5.30
2018-01-20T12:00:10.097Z,5.20
2018-01-20T12:02:38.252Z,5.20
2018-01-20T12:05:06.432Z,5.20
2018-01-20T12:07:34.560Z,5.20
2018-01-20T12:10:02.711Z,5.30
2018-01-20T12:12:30.860Z,5.20
2018-01-20T12:14:59.761Z,5.10
2018-01-20T12:17:28.691Z,5.10
2018-01-20T12:19:56.843Z,5.10
2018-01-20T12:22:25.012Z,5.20
2018-01-20T12:24:53.154Z,5.30
2018-01-20T12:27:21.323Z,5.20
2018-01-20T12:29:49.450Z,5.30
2018-01-20T12:32:17.580Z,5.30
2018-01-20T12:34:45.757Z,5.20
2018-01-20T12:37:14.680Z,5.40
2018-01-20T12:39:43.593Z,5.50
2018-01-20T12:42:11.755Z,5.50
2018-01-20T12:44:39.891Z,5.30
2018-01-20T12:47:08.020Z,5.20
2018-01-20T12:49:36.945Z,5.20
2018-01-20T12:52:05.134Z,5.20
2018-01-20T12:54:34.074Z,5.30
2018-01-20T12:57:02.204Z,5.20
2018-01-20T12:59:31.144Z,5.40
2018-01-20T13:01:59.309Z,5.40
2018-01-20T13:04:28.218Z,5.50
2018-01-20T13:06:56.381Z,5.50
2018-01-20T13:09:25.446Z,5.50
2018-01-20T13:11:53.614Z,5.50
2018-01-20T13:14:21.791Z,5.30
2018-01-20T13:16:49.980Z,5.30
2018-01-20T13:19:18.137Z,5.10
2018-01-20T13:21:47.092Z,5.10
2018-01-20T13:24:15.247Z,5.10
2018-01-20T13:26:44.160Z,5.00
2018-01-20T13:29:12.332Z,5.00
2018-01-20T13:31:41.229Z,5.20
2018-01-20T13:34:11.079Z,5.10
2018-01-20T13:36:39.241Z,5.10
2018-01-20T13:39:09.344Z,5.30
2018-01-20T13:41:37.493Z,5.30
2018-01-20T13:44:05.655Z,5.20
2018-01-20T13:46:34.579Z,5.00
2018-01-20T13:49:02.708Z,5.00
2018-01-20T13:51:30.873Z,4.90
2018-01-20T13:53:59.760Z,4.90
2018-01-20T13:56:27.910Z,4.90
2018-01-20T13:58:56.857Z,4.80
2018-01-20T14:01:25.007Z,4.90
2018-01-20T14:03:54.625Z,4.90
2018-01-20T14:06:22.773Z,4.80
2018-01-20T14:08:50.940Z,4.90
2018-01-20T14:11:19.075Z,4.90
2018-01-20T14:13:48.000Z,4.90
2018-01-20T14:16:16.151Z,4.80
2018-01-20T14:18:44.296Z,5.00
2018-01-20T14:21:13.088Z,5.00
2018-01-20T14:23:42.064Z,4.90
2018-01-20T14:26:10.196Z,4.90
2018-01-20T14:28:39.114Z,4.90
2018-01-20T14:31:07.256Z,4.90
2018-01-20T14:33:35.396Z,4.80
2018-01-20T14:36:03.574Z,4.80
2018-01-20T14:38:31.726Z,4.80
2018-01-20T14:40:59.918Z,4.80
2018-01-20T14:43:28.065Z,4.80
2018-01-20T14:45:56.206Z,4.80
2018-01-20T14:48:24.362Z,4.70
2018-01-20T14:50:52.488Z,4.70
2018-01-20T14:53:21.543Z,4.70
2018-01-20T14:55:49.709Z,4.70
2018-01-20T14:58:18.695Z,4.90
2018-01-20T15:00:46.905Z,4.90
2018-01-20T15:03:15.070Z,4.80
2018-01-20T15:05:43.220Z,4.70
2018-01-20T15:08:11.400Z,4.80
2018-01-20T15:10:39.529Z,4.80
2018-01-20T15:13:07.732Z,4.70
2018-01-20T15:15:37.053Z,4.70
2018-01-20T15:18:05.787Z,4.70
2018-01-20T15:20:33.946Z,4.60
2018-01-20T15:23:03.578Z,4.70
2018-01-20T15:25:32.515Z,4.60
2018-01-20T15:28:00.656Z,4.60
2018-01-20T15:30:29.605Z,4.50
2018-01-20T15:32:57.805Z,4.50
2018-01-20T15:35:25.952Z,4.60
2018-01-20T15:37:54.109Z,4.50
2018-01-20T15:40:22.294Z,4.40
2018-01-20T15:42:50.465Z,4.30
2018-01-20T15:45:19.366Z,4.40
2018-01-20T15:47:49.363Z,4.40
2018-01-20T15:50:18.787Z,4.30
2018-01-20T15:52:46.948Z,4.30
2018-01-20T15:55:15.094Z,4.20
2018-01-20T15:57:43.232Z,4.30
2018-01-20T16:00:11.440Z,4.30
2018-01-20T16:02:39.634Z,4.30
2018-01-20T16:05:07.803Z,4.30
2018-01-20T16:07:36.273Z,4.20
2018-01-20T16:10:05.238Z,4.30
2018-01-20T16:12:33.381Z,4.20
2018-01-20T16:15:01.542Z,4.20
2018-01-20T16:17:29.740Z,4.20
2018-01-20T16:19:57.871Z,4.10
2018-01-20T16:22:26.034Z,4.00
2018-01-20T16:24:54.205Z,4.00
2018-01-20T16:27:22.357Z,4.10
2018-01-20T16:29:50.520Z,4.10
2018-01-20T16:32:18.665Z,4.20
2018-01-20T16:34:46.781Z,4.10
2018-01-20T16:37:14.992Z,4.30
2018-01-20T16:39:43.141Z,4.30
2018-01-20T16:42:11.315Z,4.30
2018-01-20T16:44:39.464Z,4.30
2018-01-20T16:47:08.438Z,4.20
2018-01-20T16:49:36.590Z,4.20
2018-01-20T16:52:04.744Z,4.20
2018-01-20T16:54:33.671Z,4.00
2018-01-20T16:57:02.617Z,4.10
2018-01-20T16:59:31.561Z,4.10
2018-01-20T17:02:00.479Z,4.00
2018-01-20T17:04:29.395Z,4.10
2018-01-20T17:06:57.546Z,4.10
2018-01-20T17:09:25.736Z,4.20
2018-01-20T17:11:54.670Z,4.10
2018-01-20T17:14:22.839Z,4.10
2018-01-20T17:16:52.661Z,4.20
2018-01-20T17:19:21.590Z,4.20
2018-01-20T17:21:49.763Z,4.20
2018-01-20T17:24:17.906Z,4.00
2018-01-20T17:26:46.865Z,4.00
2018-01-20T17:29:14.986Z,3.90
2018-01-20T17:31:43.189Z,3.90
2018-01-20T17:34:11.308Z,3.90
2018-01-20T17:36:39.496Z,3.90
2018-01-20T17:39:07.653Z,4.10
2018-01-20T17:41:36.649Z,4.10
2018-01-20T17:44:04.844Z,4.20
2018-01-20T17:46:33.576Z,4.20
2018-01-20T17:49:01.774Z,4.10
2018-01-20T17:51:29.964Z,4.30
2018-01-20T17:53:58.107Z,4.20
2018-01-20T17:56:27.039Z,4.30
2018-01-20T17:58:55.215Z,4.30
2018-01-20T18:01:24.397Z,4.30
2018-01-20T18:03:52.543Z,4.30
2018-01-20T18:06:20.705Z,4.30
2018-01-20T18:08:48.898Z,4.30
2018-01-20T18:11:17.834Z,4.30
2018-01-20T18:13:46.039Z,4.30
2018-01-20T18:16:14.208Z,4.40
2018-01-20T18:18:42.361Z,4.40
2018-01-20T18:21:10.530Z,4.50
2018-01-20T18:23:39.477Z,4.60
2018-01-20T18:26:07.637Z,4.50
2018-01-20T18:28:35.799Z,4.60
2018-01-20T18:31:04.760Z,4.50
2018-01-20T18:33:32.926Z,4.50
2018-01-20T18:36:01.100Z,4.50
2018-01-20T18:38:30.078Z,4.60
2018-01-20T18:40:58.221Z,4.60
2018-01-20T18:43:26.411Z,4.20
2018-01-20T18:45:54.565Z,4.20
2018-01-20T18:48:23.483Z,4.30
2018-01-20T18:50:51.647Z,4.30
2018-01-20T18:53:21.435Z,4.50
2018-01-20T18:55:49.625Z,4.50
2018-01-20T18:58:17.765Z,4.50
2018-01-20T19:00:45.927Z,4.20
2018-01-20T19:03:14.860Z,4.40
2018-01-20T19:05:43.028Z,4.40
2018-01-20T19:08:11.183Z,4.40
2018-01-20T19:10:39.357Z,4.50
2018-01-20T19:13:07.500Z,4.50
2018-01-20T19:15:35.668Z,4.50
2018-01-20T19:18:03.817Z,4.60
2018-01-20T19:20:31.987Z,4.50
2018-01-20T19:23:00.124Z,4.50
2018-01-20T19:25:29.047Z,4.50
2018-01-20T19:27:57.245Z,4.50
2018-01-20T19:30:26.201Z,4.50
2018-01-20T19:32:55.566Z,4.30
2018-01-20T19:35:23.689Z,4.20
2018-01-20T19:37:51.853Z,4.30
2018-01-20T19:40:20.040Z,4.40
2018-01-20T19:42:48.759Z,4.40
2018-01-20T19:45:16.925Z,4.50
2018-01-20T19:47:45.100Z,4.50
2018-01-20T19:50:13.263Z,4.40
2018-01-20T19:52:41.440Z,4.40
2018-01-20T19:55:10.388Z,4.40
2018-01-20T19:57:38.540Z,4.40
2018-01-20T20:00:07.505Z,4.40
2018-01-20T20:02:36.289Z,4.40
2018-01-20T20:05:04.465Z,4.40
2018-01-20T20:07:32.630Z,4.10
2018-01-20T20:10:00.798Z,4.00
2018-01-20T20:12:29.711Z,3.50
2018-01-20T20:14:57.854Z,3.50
2018-01-20T20:17:26.053Z,3.40
2018-01-20T20:19:54.220Z,3.40
2018-01-20T20:22:22.412Z,3.80
2018-01-20T20:24:50.561Z,4.00
2018-01-20T20:27:18.766Z,4.20
2018-01-20T20:29:46.979Z,4.40
2018-01-20T20:32:15.124Z,4.40
2018-01-20T20:34:44.508Z,4.40
2018-01-20T20:37:12.667Z,4.40
2018-01-20T20:39:40.836Z,4.50
2018-01-20T20:42:14.050Z,4.50
2018-01-20T20:44:43.092Z,4.50
2018-01-20T20:47:12.037Z,4.30
2018-01-20T20:49:40.197Z,4.30
2018-01-20T20:52:08.382Z,4.40
2018-01-20T20:54:37.432Z,4.30
2018-01-20T20:57:05.629Z,4.20
2018-01-20T20:59:33.755Z,4.20
2018-01-20T21:02:02.498Z,4.30
2018-01-20T21:04:31.675Z,4.20
2018-01-20T21:07:03.235Z,4.20
2018-01-20T21:09:32.132Z,4.30
2018-01-20T21:12:00.305Z,4.30
2018-01-20T21:14:29.613Z,4.20
2018-01-20T21:16:59.222Z,4.00
2018-01-20T21:19:28.116Z,3.70
2018-01-20T21:21:56.276Z,3.70
2018-01-20T21:24:24.465Z,3.90
2018-01-20T21:26:53.459Z,3.90
2018-01-20T21:29:21.621Z,3.60
2018-01-20T21:31:49.772Z,3.60
2018-01-20T21:34:18.696Z,3.70
2018-01-20T21:36:46.878Z,3.80
2018-01-20T21:39:15.033Z,3.90
2018-01-20T21:41:43.217Z,3.70
2018-01-20T21:44:11.934Z,3.80
2018-01-20T21:46:40.090Z,3.90
2018-01-20T21:49:09.871Z,4.00
2018-01-20T21:51:38.794Z,3.70
2018-01-20T21:54:08.174Z,3.70
2018-01-20T21:56:37.109Z,3.40
2018-01-20T21:59:06.015Z,3.60
2018-01-20T22:01:34.224Z,3.60
2018-01-20T22:04:03.136Z,3.60
2018-01-20T22:06:32.167Z,3.60
2018-01-20T22:09:00.916Z,3.70
2018-01-20T22:11:29.861Z,3.60
2018-01-20T22:13:58.938Z,3.50
2018-01-20T22:16:27.078Z,3.50
2018-01-20T22:18:56.085Z,3.20
2018-01-20T22:21:24.262Z,3.40
2018-01-20T22:23:52.431Z,3.50
2018-01-20T22:26:20.579Z,3.60
2018-01-20T22:28:50.261Z,3.40
2018-01-20T22:31:18.420Z,3.40
2018-01-20T22:33:46.564Z,3.30
2018-01-20T22:36:14.751Z,3.20
2018-01-20T22:38:42.889Z,3.30
2018-01-20T22:41:11.074Z,3.30
2018-01-20T22:43:39.782Z,3.30
2018-01-20T22:46:07.945Z,3.30
2018-01-20T22:48:36.124Z,3.30
2018-01-20T22:51:04.315Z,3.40
2018-01-20T22:53:32.475Z,3.30
2018-01-20T22:56:01.802Z,3.30
2018-01-20T22:58:29.976Z,3.30
2018-01-20T23:01:04.538Z,3.20
2018-01-20T23:03:32.689Z,3.20
2018-01-20T23:06:01.630Z,3.40
2018-01-20T23:08:29.792Z,3.30
2018-01-20T23:10:57.925Z,3.40
2018-01-20T23:13:26.089Z,3.30
2018-01-20T23:15:54.245Z,3.10
2018-01-20T23:18:23.204Z,3.40
2018-01-20T23:20:51.356Z,3.40
2018-01-20T23:23:20.405Z,3.50
2018-01-20T23:25:48.608Z,3.60
2018-01-20T23:28:17.517Z,3.80
2018-01-20T23:30:46.465Z,3.90
2018-01-20T23:33:14.617Z,3.90
2018-01-20T23:35:42.783Z,3.80
2018-01-20T23:38:10.985Z,3.60
2018-01-20T23:40:39.120Z,3.80
2018-01-20T23:43:07.275Z,3.90
2018-01-20T23:45:36.221Z,3.70
2018-01-20T23:48:05.159Z,3.70
2018-01-20T23:50:33.320Z,3.80
2018-01-20T23:53:01.471Z,4.00
2018-01-20T23:55:29.650Z,4.00
2018-01-20T23:57:57.804Z,4.00
